Time;durP1;ratioP1;P1;durP2;ratioP2;P2;SDS_P1;SDS_P2;PMS_P1;PMS_P2;Temp;Humidity;BMP_temperature;BMP_pressure;BME280_temperature;BME280_humidity;BME280_pressure;Samples;Min_cycle;Max_cycle;Signal;HPM_P1;HPM_P2
2023/04/25 00:00:28;;;;;;;19.05;4.07;;;8.90;75.40;;;;;;5094144;28;20096;-77
2023/04/25 00:02:56;;;;;;;14.07;3.85;;;8.90;75.30;;;;;;5094225;28;20133;-77
2023/04/25 00:05:22;;;;;;;8.52;2.92;;;8.90;75.10;;;;;;5093666;28;20047;-77
2023/04/25 00:07:49;;;;;;;10.32;3.25;;;8.90;75.10;;;;;;5094128;28;20051;-77
2023/04/25 00:10:15;;;;;;;7.70;2.53;;;8.80;75.10;;;;;;5076919;28;20504;-77
2023/04/25 00:12:41;;;;;;;10.05;2.72;;;8.90;75.10;;;;;;5076732;28;20036;-77
2023/04/25 00:15:08;;;;;;;13.18;3.10;;;8.80;75.10;;;;;;5076786;28;20040;-77
2023/04/25 00:17:34;;;;;;;10.15;2.97;;;8.80;75.10;;;;;;5076638;28;20082;-77
2023/04/25 00:20:04;;;;;;;12.27;2.95;;;8.80;75.20;;;;;;5076726;28;20048;-77
2023/04/25 00:22:30;;;;;;;8.38;3.28;;;8.80;75.20;;;;;;5093583;28;20047;-77
2023/04/25 00:24:57;;;;;;;9.07;3.20;;;8.80;75.30;;;;;;5093793;28;20047;-77
2023/04/25 00:27:22;;;;;;;11.00;2.85;;;8.80;75.10;;;;;;5058587;28;20400;-77
2023/04/25 00:29:48;;;;;;;9.20;2.80;;;8.80;74.80;;;;;;5076584;28;20048;-77
2023/04/25 00:32:14;;;;;;;11.63;3.08;;;8.80;74.50;;;;;;5076507;28;20036;-77
2023/04/25 00:34:39;;;;;;;9.57;2.85;;;8.70;74.40;;;;;;5093295;28;20032;-77
2023/04/25 00:37:05;;;;;;;14.27;3.20;;;8.80;74.40;;;;;;5093182;28;20378;-77
2023/04/25 00:39:31;;;;;;;9.52;2.60;;;8.70;74.40;;;;;;5076687;28;20040;-77
2023/04/25 00:41:58;;;;;;;12.48;4.10;;;8.70;74.40;;;;;;5093085;28;20052;-77
2023/04/25 00:44:26;;;;;;;10.50;2.80;;;8.70;74.40;;;;;;5092985;28;20040;-77
2023/04/25 00:46:53;;;;;;;13.90;3.53;;;8.70;74.40;;;;;;5093169;28;20113;-77
2023/04/25 00:49:19;;;;;;;10.32;2.97;;;8.70;74.40;;;;;;5092969;28;20460;-77
2023/04/25 00:51:45;;;;;;;14.27;2.95;;;8.70;74.50;;;;;;5092660;28;20063;-77
2023/04/25 00:54:12;;;;;;;9.48;3.42;;;8.70;74.70;;;;;;5059628;28;20122;-77
2023/04/25 00:56:38;;;;;;;11.73;2.78;;;8.70;74.70;;;;;;5092634;28;20489;-77
2023/04/25 00:59:04;;;;;;;9.02;2.70;;;8.60;74.60;;;;;;5092170;28;20111;-77
2023/04/25 01:01:31;;;;;;;10.88;3.40;;;8.60;74.40;;;;;;5092831;28;20072;-77
2023/04/25 01:03:58;;;;;;;11.02;3.35;;;8.60;74.00;;;;;;5075853;28;20096;-77
2023/04/25 01:06:24;;;;;;;12.55;3.08;;;8.50;74.00;;;;;;5092835;28;20118;-77
2023/04/25 01:08:51;;;;;;;11.80;3.50;;;8.50;73.90;;;;;;5092055;28;20477;-77
2023/04/25 01:11:17;;;;;;;9.50;3.28;;;8.50;73.80;;;;;;5092800;28;20177;-77
2023/04/25 01:13:43;;;;;;;9.88;3.00;;;8.50;73.80;;;;;;5075812;28;20122;-77
2023/04/25 01:16:09;;;;;;;7.25;2.60;;;8.40;74.00;;;;;;5092999;28;20039;-77
2023/04/25 01:18:36;;;;;;;9.88;2.63;;;8.40;74.20;;;;;;5075704;28;20031;-76
2023/04/25 01:21:12;;;;;;;12.48;3.10;;;8.40;74.40;;;;;;5075425;28;20047;-77
2023/04/25 01:23:41;;;;;;;9.75;3.20;;;8.40;74.60;;;;;;5075096;28;20052;-77
2023/04/25 01:26:12;;;;;;;10.05;2.85;;;8.40;74.70;;;;;;5092344;28;20044;-77
2023/04/25 01:28:40;;;;;;;14.40;3.58;;;8.40;74.70;;;;;;5075352;28;20484;-77
2023/04/25 01:31:07;;;;;;;10.95;3.40;;;8.40;74.80;;;;;;5075235;28;20047;-77
2023/04/25 01:33:33;;;;;;;13.20;3.45;;;8.40;74.80;;;;;;5092077;28;20040;-77
2023/04/25 01:35:59;;;;;;;10.57;3.15;;;8.30;74.80;;;;;;5092421;28;20122;-77
2023/04/25 01:38:25;;;;;;;13.07;2.72;;;8.30;74.90;;;;;;5075379;28;20040;-77
2023/04/25 01:40:52;;;;;;;8.15;2.70;;;8.30;74.90;;;;;;5075420;28;20042;-77
2023/04/25 01:43:17;;;;;;;10.05;3.60;;;8.30;75.10;;;;;;5091781;28;20080;-77
2023/04/25 01:45:43;;;;;;;9.43;2.40;;;8.30;75.30;;;;;;5092164;28;20068;-77
2023/04/25 01:48:10;;;;;;;10.20;3.13;;;8.40;75.50;;;;;;5091768;28;20047;-77
2023/04/25 01:50:38;;;;;;;9.68;3.00;;;8.40;75.70;;;;;;5075129;28;20036;-77
2023/04/25 01:53:04;;;;;;;5.90;2.85;;;8.40;75.70;;;;;;5075515;28;20042;-77
2023/04/25 01:55:30;;;;;;;10.38;2.72;;;8.40;75.80;;;;;;5091910;28;20093;-77
2023/04/25 01:57:56;;;;;;;8.90;3.00;;;8.40;75.90;;;;;;5092077;28;20426;-77
2023/04/25 02:00:22;;;;;;;7.55;2.70;;;8.40;75.90;;;;;;5092178;28;20465;-77
2023/04/25 02:02:50;;;;;;;9.38;2.67;;;8.40;76.00;;;;;;5092421;28;20447;-77
2023/04/25 02:05:16;;;;;;;8.73;2.60;;;8.50;76.20;;;;;;5039788;28;20044;-77
2023/04/25 02:07:42;;;;;;;7.25;2.72;;;8.50;76.20;;;;;;5105457;28;20076;-77
2023/04/25 02:10:09;;;;;;;7.70;2.50;;;8.50;76.20;;;;;;5088732;28;20248;-77
2023/04/25 02:12:35;;;;;;;11.73;3.85;;;8.50;76.20;;;;;;5077547;28;20066;-77
2023/04/25 02:15:01;;;;;;;11.60;3.20;;;8.50;76.20;;;;;;5075116;28;20127;-77
2023/04/25 02:17:27;;;;;;;11.93;3.05;;;8.50;76.00;;;;;;5074683;28;20119;-77
2023/04/25 02:19:53;;;;;;;11.50;3.33;;;8.50;75.80;;;;;;5061216;28;20036;-77
2023/04/25 02:22:18;;;;;;;10.77;2.80;;;8.50;75.40;;;;;;5079053;28;20048;-77
2023/04/25 02:24:45;;;;;;;12.02;3.30;;;8.50;75.20;;;;;;5062198;28;20044;-77
2023/04/25 02:27:10;;;;;;;15.25;3.10;;;8.50;74.80;;;;;;5095577;28;20396;-77
2023/04/25 02:29:36;;;;;;;12.60;3.22;;;8.50;74.40;;;;;;5078610;28;20043;-77
2023/04/25 02:32:02;;;;;;;10.13;2.58;;;8.50;74.20;;;;;;5078469;28;20054;-77
2023/04/25 02:34:27;;;;;;;8.68;2.22;;;8.40;73.90;;;;;;5061678;28;20113;-77
2023/04/25 02:36:53;;;;;;;7.18;2.63;;;8.40;73.90;;;;;;5095589;28;20046;-77
2023/04/25 02:39:19;;;;;;;8.52;2.60;;;8.40;73.90;;;;;;5095501;28;20089;-77
2023/04/25 02:41:44;;;;;;;10.07;3.15;;;8.40;74.10;;;;;;5078548;28;20523;-77
2023/04/25 02:44:10;;;;;;;8.90;2.13;;;8.40;74.20;;;;;;5078720;28;20058;-77
2023/04/25 02:46:36;;;;;;;10.38;2.67;;;8.40;74.30;;;;;;5078475;28;20424;-77
2023/04/25 02:49:02;;;;;;;8.32;2.22;;;8.40;74.40;;;;;;5078702;28;20044;-77
2023/04/25 02:51:27;;;;;;;9.45;2.40;;;8.40;74.60;;;;;;5061634;28;20408;-77
2023/04/25 02:53:53;;;;;;;9.93;2.10;;;8.40;74.50;;;;;;5079115;28;20039;-77
2023/04/25 02:56:19;;;;;;;8.32;2.55;;;8.40;74.50;;;;;;5095061;28;20212;-77
2023/04/25 02:58:45;;;;;;;8.32;2.30;;;8.40;74.50;;;;;;5078522;28;20120;-77
2023/04/25 03:01:11;;;;;;;10.07;2.78;;;8.40;74.50;;;;;;5078277;28;20626;-77
2023/04/25 03:03:36;;;;;;;9.23;2.45;;;8.40;74.50;;;;;;5078228;28;20097;-77
2023/04/25 03:06:02;;;;;;;9.05;2.60;;;8.40;74.40;;;;;;5095128;28;20047;-78
2023/04/25 03:08:32;;;;;;;11.52;2.15;;;8.40;74.10;;;;;;5094768;28;20040;-77
2023/04/25 03:10:58;;;;;;;8.13;2.30;;;8.40;73.60;;;;;;5078594;28;20048;-77
2023/04/25 03:13:24;;;;;;;10.63;2.78;;;8.40;73.00;;;;;;5077974;28;20089;-78
2023/04/25 03:15:50;;;;;;;8.27;2.22;;;8.40;72.60;;;;;;5078570;28;20036;-78
2023/04/25 03:18:16;;;;;;;11.68;2.10;;;8.30;72.50;;;;;;5078106;28;20043;-77
2023/04/25 03:20:42;;;;;;;6.82;1.65;;;8.30;72.50;;;;;;5078046;28;20494;-78
2023/04/25 03:23:08;;;;;;;9.20;1.85;;;8.20;72.20;;;;;;5077834;28;20035;-77
2023/04/25 03:25:34;;;;;;;6.78;1.73;;;8.20;71.70;;;;;;5094737;28;20050;-77
2023/04/25 03:27:59;;;;;;;7.65;1.92;;;8.20;71.50;;;;;;5094496;28;20119;-77
2023/04/25 03:30:25;;;;;;;5.90;1.33;;;8.20;71.30;;;;;;5076961;28;20038;-77
2023/04/25 03:32:51;;;;;;;7.20;1.70;;;8.10;71.20;;;;;;5077537;28;20058;-77
2023/04/25 03:35:16;;;;;;;5.07;1.60;;;8.10;71.00;;;;;;5061466;28;20043;-77
2023/04/25 03:37:45;;;;;;;6.40;1.73;;;8.10;71.30;;;;;;5094739;28;20035;-78
2023/04/25 03:40:11;;;;;;;6.00;1.83;;;8.10;71.30;;;;;;5093898;28;20058;-77
2023/04/25 03:42:37;;;;;;;5.72;1.70;;;8.00;71.20;;;;;;5093624;28;20055;-77
2023/04/25 03:45:03;;;;;;;6.68;1.60;;;8.10;71.60;;;;;;5060633;28;20055;-78
2023/04/25 03:47:29;;;;;;;9.10;1.85;;;8.10;71.80;;;;;;5057512;28;20514;-77
2023/04/25 03:49:55;;;;;;;6.72;1.60;;;8.00;71.80;;;;;;5073854;28;20124;-77
2023/04/25 03:52:20;;;;;;;6.38;1.50;;;8.10;71.80;;;;;;5057344;28;20083;-77
2023/04/25 03:54:46;;;;;;;5.88;1.55;;;8.10;71.80;;;;;;5057652;28;20094;-77
2023/04/25 03:57:12;;;;;;;7.75;1.75;;;8.10;72.00;;;;;;5073835;28;20463;-77
2023/04/25 03:59:38;;;;;;;6.90;2.35;;;8.00;72.00;;;;;;5074084;28;20037;-78
2023/04/25 04:02:04;;;;;;;6.40;1.52;;;8.10;72.20;;;;;;5073845;28;20493;-78
2023/04/25 04:04:29;;;;;;;6.50;1.55;;;8.10;72.30;;;;;;5078322;28;20512;-77
2023/04/25 04:06:55;;;;;;;8.65;1.88;;;8.10;72.20;;;;;;5060689;28;20036;-77
2023/04/25 04:09:21;;;;;;;8.27;1.77;;;8.10;71.60;;;;;;5077256;28;20476;-77
2023/04/25 04:11:47;;;;;;;8.98;1.77;;;8.10;71.30;;;;;;5094077;28;20048;-77
2023/04/25 04:14:13;;;;;;;8.25;1.70;;;8.00;71.00;;;;;;5077063;28;20505;-78
2023/04/25 04:16:39;;;;;;;6.30;1.50;;;8.00;70.70;;;;;;5077240;28;20036;-78
2023/04/25 04:19:05;;;;;;;5.57;1.65;;;8.00;70.30;;;;;;5077024;28;20489;-77
2023/04/25 04:21:31;;;;;;;10.23;1.60;;;7.90;70.00;;;;;;5093847;28;20059;-77
2023/04/25 04:23:59;;;;;;;7.35;2.45;;;7.90;70.20;;;;;;5076534;28;20044;-77
2023/04/25 04:26:26;;;;;;;7.20;1.60;;;7.80;70.20;;;;;;5060666;28;20135;-77
2023/04/25 04:28:54;;;;;;;4.93;1.02;;;7.80;70.40;;;;;;5075254;28;20040;-77
2023/04/25 04:31:23;;;;;;;5.25;1.33;;;7.80;70.90;;;;;;5076498;28;20079;-77
2023/04/25 04:33:50;;;;;;;7.60;1.35;;;7.90;71.30;;;;;;5093097;28;20044;-77
2023/04/25 04:36:19;;;;;;;6.40;1.30;;;7.80;71.70;;;;;;5076223;28;20043;-78
2023/04/25 04:38:45;;;;;;;5.75;2.10;;;7.90;72.10;;;;;;5076832;28;20036;-78
2023/04/25 04:41:11;;;;;;;6.28;1.30;;;7.90;72.40;;;;;;5092948;28;20515;-78
2023/04/25 04:43:36;;;;;;;4.95;1.63;;;7.90;72.00;;;;;;5076246;28;20044;-77
2023/04/25 04:46:03;;;;;;;4.75;1.23;;;7.80;71.70;;;;;;5076166;28;20032;-78
2023/04/25 04:48:34;;;;;;;6.20;1.60;;;7.90;72.00;;;;;;5093188;28;20122;-77
2023/04/25 04:51:00;;;;;;;4.85;1.63;;;7.90;72.10;;;;;;5092470;28;20075;-77
2023/04/25 04:53:26;;;;;;;6.45;2.38;;;7.90;72.30;;;;;;5075847;28;20064;-78
2023/04/25 04:55:52;;;;;;;11.27;3.17;;;7.90;72.10;;;;;;5075956;28;20032;-77
2023/04/25 04:58:18;;;;;;;9.48;2.90;;;7.90;71.90;;;;;;5066498;28;20035;-77
2023/04/25 05:00:44;;;;;;;11.50;3.45;;;7.90;72.00;;;;;;5090299;28;20040;-77
2023/04/25 05:03:11;;;;;;;8.98;2.53;;;7.90;72.00;;;;;;5093003;28;20044;-77
2023/04/25 05:05:39;;;;;;;8.75;1.95;;;7.90;72.00;;;;;;5076080;28;20043;-78
2023/04/25 05:08:06;;;;;;;8.75;2.15;;;8.00;72.00;;;;;;5075891;28;20492;-77
2023/04/25 05:10:31;;;;;;;8.25;2.03;;;7.90;71.80;;;;;;5075972;28;20496;-77
2023/04/25 05:12:57;;;;;;;7.53;2.08;;;8.00;71.70;;;;;;5092388;28;20043;-77
2023/04/25 05:15:23;;;;;;;7.95;2.08;;;8.00;71.70;;;;;;5075945;28;20032;-77
2023/04/25 05:17:48;;;;;;;7.15;2.13;;;8.00;71.80;;;;;;5075702;28;20078;-78
2023/04/25 05:20:15;;;;;;;6.00;1.83;;;8.00;71.80;;;;;;5092748;28;20067;-78
2023/04/25 05:22:41;;;;;;;6.85;2.25;;;8.00;71.60;;;;;;5075900;28;20071;-78
2023/04/25 05:25:09;;;;;;;10.40;2.40;;;8.00;71.50;;;;;;5075364;28;20044;-78
2023/04/25 05:27:34;;;;;;;8.85;2.17;;;8.00;71.20;;;;;;5075188;28;20074;-77
2023/04/25 05:30:00;;;;;;;13.07;2.70;;;8.00;70.90;;;;;;5091916;28;20055;-77
2023/04/25 05:32:26;;;;;;;8.73;2.90;;;8.00;70.60;;;;;;5068423;28;20044;-78
2023/04/25 05:34:52;;;;;;;11.73;4.35;;;8.00;70.30;;;;;;5088451;28;20040;-77
2023/04/25 05:37:18;;;;;;;12.07;5.03;;;8.00;70.30;;;;;;5091953;28;20104;-78
2023/04/25 05:39:44;;;;;;;14.40;3.97;;;8.00;70.10;;;;;;5075395;28;20035;-78
2023/04/25 05:42:10;;;;;;;10.82;2.53;;;8.00;69.80;;;;;;5091752;28;20043;-78
2023/04/25 05:44:36;;;;;;;8.00;1.95;;;7.90;69.70;;;;;;5092154;28;20080;-78
2023/04/25 05:47:01;;;;;;;8.02;2.22;;;7.90;69.50;;;;;;5092302;28;20039;-77
2023/04/25 05:49:27;;;;;;;9.23;2.33;;;7.90;69.50;;;;;;5092086;28;20032;-78
2023/04/25 05:51:53;;;;;;;7.53;1.77;;;7.90;69.30;;;;;;5091899;28;20047;-77
2023/04/25 05:54:18;;;;;;;6.55;1.95;;;7.90;69.30;;;;;;5057667;28;20501;-77
2023/04/25 05:56:44;;;;;;;7.50;2.15;;;7.90;68.80;;;;;;5073353;28;20037;-77
2023/04/25 05:59:10;;;;;;;7.53;1.60;;;7.90;68.90;;;;;;5041229;28;20036;-77
2023/04/25 06:01:35;;;;;;;6.07;1.40;;;7.90;68.70;;;;;;5041409;28;20032;-77
2023/04/25 06:04:01;;;;;;;6.35;1.50;;;7.90;68.60;;;;;;5074367;28;20093;-77
2023/04/25 06:06:27;;;;;;;3.75;1.17;;;7.90;68.40;;;;;;5075006;28;20067;-77
2023/04/25 06:08:53;;;;;;;6.05;1.55;;;7.90;68.70;;;;;;5075579;28;20044;-77
2023/04/25 06:11:19;;;;;;;6.13;1.70;;;7.90;68.80;;;;;;5074911;28;20409;-77
2023/04/25 06:13:45;;;;;;;7.00;1.63;;;7.90;68.70;;;;;;5091861;28;20040;-78
2023/04/25 06:16:11;;;;;;;4.88;1.42;;;7.90;69.00;;;;;;5091468;28;20044;-77
2023/04/25 06:18:37;;;;;;;6.03;2.13;;;8.00;69.40;;;;;;5074964;28;20496;-78
2023/04/25 06:21:03;;;;;;;8.68;1.85;;;8.10;69.80;;;;;;5075090;28;20131;-78
2023/04/25 06:23:28;;;;;;;5.07;1.52;;;8.20;69.80;;;;;;5092070;28;20090;-78
2023/04/25 06:25:54;;;;;;;7.07;1.50;;;8.50;70.30;;;;;;5075068;28;20051;-78
2023/04/25 06:28:21;;;;;;;5.70;1.50;;;8.90;70.00;;;;;;5058170;28;20123;-79
2023/04/25 06:30:47;;;;;;;6.45;2.13;;;9.20;69.60;;;;;;5075024;28;20035;-79
2023/04/25 06:33:13;;;;;;;7.55;1.50;;;9.60;68.50;;;;;;5091844;28;20529;-78
2023/04/25 06:35:39;;;;;;;8.57;1.92;;;9.90;67.50;;;;;;5074644;28;20097;-79
2023/04/25 06:38:04;;;;;;;5.35;1.52;;;10.20;66.30;;;;;;5037942;28;20047;-79
2023/04/25 06:40:30;;;;;;;7.60;2.58;;;10.60;66.10;;;;;;5071372;28;20036;-79
2023/04/25 06:42:56;;;;;;;6.20;1.65;;;10.90;65.40;;;;;;5054649;28;20048;-79
2023/04/25 06:45:21;;;;;;;6.78;2.85;;;11.30;64.40;;;;;;5071368;28;20047;-79
2023/04/25 06:47:47;;;;;;;9.63;3.17;;;11.60;63.80;;;;;;5055336;28;20037;-78
2023/04/25 06:50:13;;;;;;;8.23;2.63;;;11.90;62.70;;;;;;5088600;28;20565;-79
2023/04/25 06:52:38;;;;;;;9.75;2.40;;;12.30;62.00;;;;;;5091619;28;20119;-77
2023/04/25 06:55:05;;;;;;;11.35;3.35;;;12.70;61.50;;;;;;5074737;28;20048;-78
2023/04/25 06:57:31;;;;;;;7.70;1.80;;;12.90;59.70;;;;;;5074982;28;20063;-78
2023/04/25 06:59:56;;;;;;;7.63;2.00;;;13.10;58.70;;;;;;5074623;28;20044;-78
2023/04/25 07:02:22;;;;;;;9.43;2.05;;;13.30;57.70;;;;;;5074813;28;20040;-78
2023/04/25 07:04:48;;;;;;;6.22;1.75;;;13.40;57.00;;;;;;5091448;28;20044;-78
2023/04/25 07:07:14;;;;;;;9.40;2.28;;;13.50;56.20;;;;;;5077805;28;20071;-78
2023/04/25 07:09:39;;;;;;;6.40;2.03;;;13.50;56.00;;;;;;5094833;28;20377;-74
2023/04/25 07:12:05;;;;;;;5.70;1.77;;;13.60;56.40;;;;;;5094853;28;20047;-74
2023/04/25 07:14:31;;;;;;;5.53;1.90;;;13.80;56.10;;;;;;5094570;28;20358;-75
2023/04/25 07:16:57;;;;;;;4.40;1.20;;;14.00;56.30;;;;;;5094842;28;20043;-73
2023/04/25 07:19:26;;;;;;;5.55;1.75;;;14.40;55.20;;;;;;5077459;28;20485;-75
2023/04/25 07:21:52;;;;;;;5.47;1.63;;;14.60;54.10;;;;;;5094243;28;20060;-75
2023/04/25 07:24:18;;;;;;;5.53;2.05;;;14.80;53.60;;;;;;5077413;28;20046;-76
2023/04/25 07:26:43;;;;;;;5.80;1.48;;;15.00;53.00;;;;;;5094218;28;20035;-75
2023/04/25 07:29:09;;;;;;;6.53;1.73;;;15.20;52.50;;;;;;5077625;28;20036;-76
2023/04/25 07:31:35;;;;;;;5.25;1.80;;;15.40;50.60;;;;;;5094146;28;20036;-75
2023/04/25 07:34:01;;;;;;;4.30;1.38;;;15.60;49.50;;;;;;5094125;28;20071;-75
2023/04/25 07:36:27;;;;;;;4.40;1.50;;;15.80;48.60;;;;;;5094198;28;20457;-75
2023/04/25 07:38:52;;;;;;;5.50;1.45;;;15.90;48.00;;;;;;5077334;28;20039;-75
2023/04/25 07:41:18;;;;;;;6.57;1.33;;;16.00;47.30;;;;;;5060588;28;20046;-76
2023/04/25 07:43:44;;;;;;;7.13;1.63;;;16.00;46.80;;;;;;5077104;28;20070;-75
2023/04/25 07:46:09;;;;;;;5.20;1.33;;;16.00;46.30;;;;;;5073350;28;20051;-75
2023/04/25 07:48:35;;;;;;;7.63;1.77;;;16.00;45.80;;;;;;5092507;28;20127;-75
2023/04/25 07:51:01;;;;;;;6.20;1.65;;;15.80;44.60;;;;;;5076726;28;20055;-75
2023/04/25 07:53:26;;;;;;;6.25;1.38;;;15.70;45.30;;;;;;5059548;28;20123;-75
2023/04/25 07:55:52;;;;;;;5.93;1.67;;;15.50;45.20;;;;;;5088834;28;20036;-74
2023/04/25 07:58:21;;;;;;;4.30;0.90;;;15.30;45.70;;;;;;5094778;28;20031;-74
2023/04/25 08:00:47;;;;;;;3.47;0.90;;;14.90;46.50;;;;;;5079027;28;20058;-74
2023/04/25 08:03:13;;;;;;;3.30;0.85;;;14.50;47.80;;;;;;5076451;28;20046;-74
2023/04/25 08:05:39;;;;;;;3.50;1.05;;;14.00;49.00;;;;;;5080792;28;20040;-74
2023/04/25 08:08:06;;;;;;;2.13;0.82;;;13.70;49.60;;;;;;5093513;28;20493;-74
2023/04/25 08:10:32;;;;;;;3.20;0.80;;;13.30;49.80;;;;;;5060291;28;20048;-73
2023/04/25 08:12:58;;;;;;;4.57;0.77;;;13.10;50.70;;;;;;5092672;28;20045;-74
2023/04/25 08:15:25;;;;;;;5.10;1.42;;;12.80;51.70;;;;;;5080946;28;20036;-73
2023/04/25 08:17:51;;;;;;;5.65;1.25;;;12.60;52.90;;;;;;5092560;28;20044;-74
2023/04/25 08:20:16;;;;;;;6.57;1.75;;;12.50;53.90;;;;;;5093560;28;20040;-74
2023/04/25 08:22:42;;;;;;;10.93;3.70;;;12.40;54.70;;;;;;5093213;28;20457;-74
2023/04/25 08:25:08;;;;;;;9.73;2.67;;;12.20;55.20;;;;;;5043368;28;20036;-74
2023/04/25 08:27:34;;;;;;;6.45;2.00;;;12.10;55.90;;;;;;5092780;28;20032;-74
2023/04/25 08:30:02;;;;;;;8.15;1.50;;;12.10;56.10;;;;;;5092925;28;20170;-74
2023/04/25 08:32:28;;;;;;;5.68;1.33;;;12.00;56.30;;;;;;5076223;28;20337;-75
2023/04/25 08:34:55;;;;;;;5.65;1.20;;;12.10;56.90;;;;;;5076059;28;20036;-75
2023/04/25 08:37:21;;;;;;;4.90;0.98;;;12.10;57.40;;;;;;5076061;28;20036;-75
2023/04/25 08:39:53;;;;;;;5.50;1.27;;;12.20;57.90;;;;;;5075858;28;20127;-75
2023/04/25 08:42:21;;;;;;;3.17;0.80;;;12.40;57.30;;;;;;5059972;28;20536;-74
2023/04/25 08:44:48;;;;;;;6.93;1.02;;;12.50;57.40;;;;;;5092104;28;20040;-75
2023/04/25 08:47:14;;;;;;;4.85;1.27;;;12.70;57.40;;;;;;5075402;28;20514;-75
2023/04/25 08:49:45;;;;;;;4.00;1.08;;;12.90;57.10;;;;;;5092580;28;20036;-74
2023/04/25 08:52:13;;;;;;;6.82;1.45;;;13.10;57.60;;;;;;5092776;28;20063;-74
2023/04/25 08:54:48;;;;;;;7.07;1.65;;;13.30;57.30;;;;;;5092595;28;20043;-74
2023/04/25 08:57:15;;;;;;;;;;;13.40;55.90;;;;;;5092902;28;20054;-75
2023/04/25 08:59:45;;;;;;;4.78;1.30;;;13.50;55.50;;;;;;5092390;28;19920;-75
2023/04/25 09:02:15;;;;;;;5.22;1.10;;;13.50;54.10;;;;;;5092040;28;20040;-75
2023/04/25 09:04:43;;;;;;;4.60;1.13;;;13.60;52.80;;;;;;5091936;28;20400;-75
2023/04/25 09:07:09;;;;;;;6.75;1.73;;;13.50;51.80;;;;;;5074830;28;20054;-74
2023/04/25 09:09:35;;;;;;;4.78;1.45;;;13.50;51.60;;;;;;5092919;28;20043;-79
2023/04/25 09:12:01;;;;;;;6.25;1.45;;;13.40;51.40;;;;;;5092472;28;20508;-80
2023/04/25 09:14:27;;;;;;;6.03;1.67;;;13.40;50.70;;;;;;5092565;28;20032;-79
2023/04/25 09:16:56;;;;;;;5.57;2.20;;;13.30;51.40;;;;;;5075653;28;20039;-80
2023/04/25 09:19:27;;;;;;;7.55;1.88;;;13.30;52.40;;;;;;5075861;28;20036;-82
2023/04/25 09:22:01;;;;;;;9.02;2.33;;;13.30;52.70;;;;;;5058172;28;20047;-82
2023/04/25 09:24:39;;;;;;;7.50;1.60;;;13.30;52.60;;;;;;5066202;28;20404;-82
2023/04/25 09:27:10;;;;;;;7.82;2.20;;;13.30;53.40;;;;;;5051732;28;20043;-81
2023/04/25 09:29:38;;;;;;;7.18;2.03;;;13.30;53.60;;;;;;5055009;28;20367;-79
2023/04/25 09:32:17;;;;;;;7.82;1.67;;;13.40;53.10;;;;;;5071915;28;20040;-81
2023/04/25 09:34:48;;;;;;;6.25;2.13;;;13.40;51.90;;;;;;5089094;28;20574;-82
2023/04/25 09:37:17;;;;;;;6.97;1.65;;;13.40;51.80;;;;;;5075412;28;20039;-82
2023/04/25 09:39:46;;;;;;;9.32;1.73;;;13.40;52.20;;;;;;5076687;28;20082;-83
2023/04/25 09:42:11;;;;;;;7.22;1.50;;;13.40;51.60;;;;;;5112533;28;20054;-82
2023/04/25 09:44:41;;;;;;;7.00;1.88;;;13.30;50.30;;;;;;5062340;28;20122;-82
2023/04/25 09:47:11;;;;;;;5.35;1.35;;;13.20;51.00;;;;;;5079593;28;20388;-82
2023/04/25 09:49:41;;;;;;;5.45;1.40;;;13.20;52.50;;;;;;5074344;28;20036;-81
2023/04/25 09:52:06;;;;;;;5.63;1.48;;;13.20;52.20;;;;;;5058567;28;20044;-81
2023/04/25 09:54:32;;;;;;;6.65;2.38;;;13.20;51.40;;;;;;5075416;28;20131;-81
2023/04/25 09:57:21;;;;;;;8.52;1.52;;;13.10;50.10;;;;;;5058401;28;20389;-82
2023/04/25 09:59:49;;;;;;;7.65;1.42;;;13.00;49.50;;;;;;5074915;28;20392;-81
2023/04/25 10:02:17;;;;;;;8.80;1.70;;;12.90;50.30;;;;;;5091095;28;20068;-81
2023/04/25 10:04:46;;;;;;;6.43;1.83;;;12.70;51.80;;;;;;5091219;28;20071;-80
2023/04/25 10:07:13;;;;;;;4.60;1.33;;;12.60;53.40;;;;;;5090765;28;20039;-80
2023/04/25 10:09:40;;;;;;;7.30;1.13;;;12.40;54.00;;;;;;5074675;28;20128;-80
2023/04/25 10:12:07;;;;;;;6.57;1.48;;;12.30;53.80;;;;;;5072901;28;20060;-80
2023/04/25 10:14:33;;;;;;;6.82;1.83;;;12.20;54.20;;;;;;5074905;28;20040;-80
2023/04/25 10:17:00;;;;;;;4.90;1.17;;;12.10;55.30;;;;;;5075298;28;20040;-80
2023/04/25 10:19:27;;;;;;;4.90;1.15;;;12.00;56.10;;;;;;5091831;28;20040;-81
2023/04/25 10:22:20;;;;;;;4.97;1.08;;;11.80;56.90;;;;;;5074979;28;20047;-80
2023/04/25 10:24:47;;;;;;;3.30;0.90;;;11.70;57.50;;;;;;5091873;28;20043;-81
2023/04/25 10:27:14;;;;;;;4.40;0.80;;;11.60;58.10;;;;;;5091839;28;20051;-81
2023/04/25 10:29:43;;;;;;;4.18;1.00;;;11.40;57.60;;;;;;5075291;28;20052;-81
2023/04/25 10:32:09;;;;;;;4.90;1.02;;;11.30;57.30;;;;;;5091526;28;20047;-80
2023/04/25 10:34:48;;;;;;;7.18;1.40;;;11.20;57.80;;;;;;5058587;28;20036;-80
2023/04/25 10:37:14;;;;;;;5.40;1.27;;;11.10;58.40;;;;;;5091972;28;20401;-79
2023/04/25 10:39:43;;;;;;;5.65;1.33;;;11.10;58.40;;;;;;5075524;28;20032;-80
2023/04/25 10:42:09;;;;;;;5.82;1.33;;;11.00;58.70;;;;;;5030990;28;20117;-81
2023/04/25 10:44:37;;;;;;;4.65;0.88;;;11.00;59.20;;;;;;5061662;28;20045;-80
2023/04/25 10:47:05;;;;;;;4.45;1.10;;;11.00;59.30;;;;;;5078226;28;20040;-80
2023/04/25 10:49:41;;;;;;;4.75;1.00;;;10.90;60.10;;;;;;5079034;28;20040;-80
2023/04/25 10:52:23;;;;;;;5.10;1.33;;;10.90;59.40;;;;;;5079138;28;20381;-78
2023/04/25 10:54:52;;;;;;;6.60;1.30;;;10.90;59.10;;;;;;5095386;28;20377;-79
2023/04/25 10:57:31;;;;;;;6.03;1.25;;;10.90;59.70;;;;;;5094872;28;20040;-78
2023/04/25 11:00:09;;;;;;;4.75;1.33;;;11.00;60.40;;;;;;5078225;28;20036;-79
2023/04/25 11:02:45;;;;;;;11.15;2.33;;;11.10;60.80;;;;;;5095157;28;20096;-78
2023/04/25 11:05:24;;;;;;;7.15;1.60;;;11.30;59.70;;;;;;5077869;28;20119;-79
2023/04/25 11:07:54;;;;;;;6.45;1.35;;;11.40;60.90;;;;;;5094878;28;20089;-79
2023/04/25 11:10:20;;;;;;;7.15;1.48;;;11.60;59.80;;;;;;5095027;28;20412;-78
2023/04/25 11:12:47;;;;;;;5.20;1.75;;;11.70;59.40;;;;;;5095201;28;20094;-78
2023/04/25 11:15:13;;;;;;;7.60;2.03;;;11.80;58.60;;;;;;5094554;28;20040;-84
2023/04/25 11:17:40;;;;;;;8.15;2.00;;;11.90;57.60;;;;;;5078053;28;20131;-83
2023/04/25 11:20:11;;;;;;;7.53;2.22;;;12.00;57.00;;;;;;5073828;28;20039;-83
2023/04/25 11:22:38;;;;;;;4.40;1.50;;;12.20;57.60;;;;;;5056229;28;20496;-83
2023/04/25 11:25:06;;;;;;;4.80;1.88;;;12.30;57.00;;;;;;5055144;28;20050;-83
2023/04/25 11:27:32;;;;;;;3.67;1.00;;;12.40;55.50;;;;;;5056247;28;20040;-83
2023/04/25 11:29:58;;;;;;;7.15;1.55;;;12.50;54.50;;;;;;5055423;28;20520;-82
2023/04/25 11:32:23;;;;;;;5.72;1.50;;;12.50;54.50;;;;;;5039559;28;20047;-83
2023/04/25 11:34:49;;;;;;;8.73;1.23;;;12.50;54.00;;;;;;5054773;28;20044;-83
2023/04/25 11:37:15;;;;;;;3.50;0.98;;;12.50;53.70;;;;;;5071129;28;20130;-83
2023/04/25 11:39:47;;;;;;;9.50;1.77;;;12.60;52.20;;;;;;5055456;28;20036;-84
2023/04/25 11:42:13;;;;;;;5.50;1.50;;;12.60;51.20;;;;;;5071940;28;20056;-83
2023/04/25 11:44:40;;;;;;;4.28;1.02;;;12.70;51.90;;;;;;5039312;28;20040;-83
2023/04/25 11:47:06;;;;;;;6.50;1.17;;;12.70;51.00;;;;;;5071317;28;20535;-84
2023/04/25 11:49:32;;;;;;;5.82;1.40;;;12.70;51.70;;;;;;5054879;28;20036;-84
2023/04/25 11:51:57;;;;;;;5.43;1.02;;;12.70;52.90;;;;;;5054527;28;20036;-83
2023/04/25 11:54:23;;;;;;;7.13;1.50;;;12.80;53.70;;;;;;5071822;28;20036;-83
2023/04/25 11:56:49;;;;;;;7.65;1.35;;;12.80;53.20;;;;;;5071016;28;20036;-84
2023/04/25 11:59:16;;;;;;;7.03;2.10;;;12.80;52.80;;;;;;5055296;28;20032;-84
2023/04/25 12:01:50;;;;;;;7.60;1.60;;;12.80;51.30;;;;;;5055081;28;20039;-83
2023/04/25 12:04:20;;;;;;;7.57;1.85;;;12.70;51.40;;;;;;5071043;28;20109;-85
2023/04/25 12:06:48;;;;;;;5.85;2.05;;;12.60;52.10;;;;;;5071646;28;20450;-83
2023/04/25 12:09:17;;;;;;;3.05;1.20;;;12.50;52.80;;;;;;5088753;28;20062;-84
2023/04/25 12:11:57;;;;;;;6.40;1.67;;;12.50;52.40;;;;;;5087986;28;21389;-83
2023/04/25 12:14:28;;;;;;;5.38;1.20;;;12.50;53.10;;;;;;5070873;28;20530;-84
2023/04/25 12:17:02;;;;;;;3.45;0.95;;;12.40;52.50;;;;;;5070914;28;20073;-84
2023/04/25 12:19:36;;;;;;;4.93;1.50;;;12.40;52.80;;;;;;5074002;28;20043;-82
2023/04/25 12:22:03;;;;;;;3.10;1.42;;;12.20;52.70;;;;;;5071258;28;20047;-83
2023/04/25 12:24:28;;;;;;;4.80;1.45;;;12.10;52.50;;;;;;5070456;28;20380;-83
2023/04/25 12:27:06;;;;;;;3.97;1.30;;;12.00;51.80;;;;;;5053408;28;20035;-83
2023/04/25 12:29:33;;;;;;;5.13;1.50;;;11.90;51.60;;;;;;5087570;28;20036;-79
2023/04/25 12:32:01;;;;;;;4.22;1.10;;;11.90;51.90;;;;;;5070839;28;20610;-81
2023/04/25 12:34:27;;;;;;;7.43;1.70;;;11.80;52.50;;;;;;5087579;28;20404;-77
2023/04/25 12:36:53;;;;;;;5.68;1.35;;;11.80;52.60;;;;;;5053971;28;20043;-78
2023/04/25 12:39:24;;;;;;;6.63;1.60;;;11.80;53.60;;;;;;5086939;28;20115;-81
2023/04/25 12:41:50;;;;;;;5.70;1.40;;;11.80;54.10;;;;;;5087652;28;20067;-82
2023/04/25 12:44:17;;;;;;;6.50;1.95;;;11.80;53.70;;;;;;5072405;28;20044;-81
2023/04/25 12:46:42;;;;;;;11.60;2.90;;;11.90;53.50;;;;;;5092966;28;20055;-82
2023/04/25 12:49:09;;;;;;;13.70;3.05;;;11.90;54.20;;;;;;5092761;28;20444;-83